Time;durP1;ratioP1;P1;durP2;ratioP2;P2;SDS_P1;SDS_P2;PMS_P1;PMS_P2;Temp;Humidity;BMP_temperature;BMP_pressure;BME280_temperature;BME280_humidity;BME280_pressure;Samples;Min_cycle;Max_cycle;Signal;HPM_P1;HPM_P2
2023/06/04 00:00:09;;;;;;;;;;;;;;;21.77;56.54;101173.28;7399379;19;1506;-45
2023/06/04 00:02:37;;;;;;;;;;;;;;;21.81;56.78;101150.47;7399537;19;1463;-45
2023/06/04 00:05:06;;;;;;;;;;;;;;;21.80;56.41;101177.53;7401222;19;1129;-45
2023/06/04 00:07:34;;;;;;;;;;;;;;;21.75;56.55;101158.28;7396702;19;1493;-45
2023/06/04 00:10:02;;;;;;;;;;;;;;;21.75;56.67;101171.75;7400287;19;1813;-45
2023/06/04 00:12:33;;;;;;;;;;;;;;;21.70;56.69;101160.56;7399800;19;1722;-45
2023/06/04 00:15:01;;;;;;;;;;;;;;;21.81;56.44;101171.16;7399717;19;1762;-45
2023/06/04 00:17:30;;;;;;;;;;;;;;;21.77;56.43;101169.75;7399746;19;1746;-45
2023/06/04 00:19:58;;;;;;;;;;;;;;;21.65;56.65;101166.38;7400508;19;1055;-45
2023/06/04 00:22:27;;;;;;;;;;;;;;;21.67;56.61;101164.38;7400286;19;1827;-45
2023/06/04 00:24:55;;;;;;;;;;;;;;;21.75;56.91;101164.50;7397412;19;1607;-45
2023/06/04 00:27:23;;;;;;;;;;;;;;;21.64;56.98;101167.34;7398622;19;1861;-45
2023/06/04 00:29:54;;;;;;;;;;;;;;;21.62;57.21;101169.34;7400023;19;1734;-45
2023/06/04 00:32:22;;;;;;;;;;;;;;;21.73;56.86;101176.44;7399202;19;1046;-45
2023/06/04 00:34:53;;;;;;;;;;;;;;;21.74;56.36;101168.19;7398337;19;1931;-45
2023/06/04 00:37:21;;;;;;;;;;;;;;;21.61;56.96;101175.72;7397768;19;1557;-45
2023/06/04 00:39:50;;;;;;;;;;;;;;;21.53;57.06;101180.97;7397049;19;1845;-45
2023/06/04 00:42:18;;;;;;;;;;;;;;;21.51;56.87;101161.44;7397276;19;1477;-45
2023/06/04 00:44:47;;;;;;;;;;;;;;;21.53;57.07;101165.66;7398256;19;1323;-45
2023/06/04 00:47:18;;;;;;;;;;;;;;;21.55;56.86;101168.22;7397849;19;1208;-45
2023/06/04 00:49:46;;;;;;;;;;;;;;;21.53;56.72;101171.06;7399061;19;1850;-45
2023/06/04 00:52:16;;;;;;;;;;;;;;;21.59;56.60;101165.09;7398664;19;1465;-45
2023/06/04 00:54:45;;;;;;;;;;;;;;;21.63;56.70;101166.50;7398025;19;1801;-45
2023/06/04 00:57:13;;;;;;;;;;;;;;;21.62;56.62;101174.72;7398245;19;1714;-45
2023/06/04 00:59:42;;;;;;;;;;;;;;;21.57;56.50;101171.63;7395756;19;1841;-45
2023/06/04 01:02:14;;;;;;;;;;;;;;;21.55;56.30;101181.69;7399886;19;1026;-45
2023/06/04 01:04:47;;;;;;;;;;;;;;;21.65;56.22;101169.06;7399970;19;1070;-45
2023/06/04 01:07:17;;;;;;;;;;;;;;;21.66;56.51;101176.13;7394336;19;1857;-45
2023/06/04 01:09:46;;;;;;;;;;;;;;;21.64;56.45;101189.72;7397341;19;1481;-45
2023/06/04 01:12:15;;;;;;;;;;;;;;;21.62;56.45;101166.66;7397710;19;1527;-45
2023/06/04 01:14:43;;;;;;;;;;;;;;;21.60;56.88;101174.84;7398732;19;1700;-45
2023/06/04 01:17:16;;;;;;;;;;;;;;;21.61;56.73;101184.63;7398058;19;1153;-45
2023/06/04 01:20:04;;;;;;;;;;;;;;;21.58;56.57;101179.53;7396447;19;1892;-45
2023/06/04 01:22:38;;;;;;;;;;;;;;;21.60;57.00;101176.69;7399015;19;1007;-45
2023/06/04 01:25:09;;;;;;;;;;;;;;;21.57;56.71;101174.31;7397452;19;1090;-45
2023/06/04 01:27:40;;;;;;;;;;;;;;;21.59;57.12;101166.94;7397069;19;1458;-45
2023/06/04 01:30:09;;;;;;;;;;;;;;;21.63;56.78;101176.44;7395092;19;1821;-45
2023/06/04 01:32:38;;;;;;;;;;;;;;;21.54;57.07;101163.81;7396694;19;1024;-45
2023/06/04 01:35:11;;;;;;;;;;;;;;;21.58;57.12;101178.69;7398011;19;1933;-45
2023/06/04 01:37:39;;;;;;;;;;;;;;;21.49;57.37;101180.41;7394002;19;1856;-45
2023/06/04 01:40:10;;;;;;;;;;;;;;;21.51;57.44;101180.28;7395808;19;1857;-45
2023/06/04 01:42:38;;;;;;;;;;;;;;;21.58;57.09;101189.47;7397169;19;1584;-45
2023/06/04 01:45:07;;;;;;;;;;;;;;;21.48;57.28;101188.63;7397366;19;1789;-45
2023/06/04 01:47:36;;;;;;;;;;;;;;;21.52;57.52;101188.19;7396418;19;1441;-45
2023/06/04 01:50:05;;;;;;;;;;;;;;;21.54;57.35;101194.25;7396562;19;1228;-45
2023/06/04 01:52:36;;;;;;;;;;;;;;;21.48;57.53;101185.91;7395927;19;1490;-45
2023/06/04 01:55:05;;;;;;;;;;;;;;;21.57;57.54;101203.91;7395592;19;1829;-45
2023/06/04 01:57:33;;;;;;;;;;;;;;;21.45;57.77;101195.13;7395746;19;1624;-45
2023/06/04 02:00:01;;;;;;;;;;;;;;;21.43;57.97;101197.13;7393493;19;1863;-48
2023/06/04 02:02:30;;;;;;;;;;;;;;;21.45;58.05;101204.06;7395761;19;1227;-45
2023/06/04 02:04:59;;;;;;;;;;;;;;;21.48;57.78;101205.59;7396250;19;1037;-45
2023/06/04 02:07:27;;;;;;;;;;;;;;;21.41;58.11;101199.91;7395038;19;1637;-45
2023/06/04 02:09:58;;;;;;;;;;;;;;;21.38;58.11;101205.56;7394816;19;1487;-45
2023/06/04 02:12:26;;;;;;;;;;;;;;;21.40;58.12;101213.50;7396214;19;1545;-45
2023/06/04 02:14:54;;;;;;;;;;;;;;;21.41;57.83;101204.44;7395265;19;1509;-45
2023/06/04 02:17:23;;;;;;;;;;;;;;;21.43;57.86;101213.25;7395872;19;1637;-45
2023/06/04 02:19:51;;;;;;;;;;;;;;;21.44;57.95;101205.03;7395011;19;1873;-45
2023/06/04 02:22:20;;;;;;;;;;;;;;;21.40;58.03;101202.72;7395192;19;1596;-45
2023/06/04 02:24:49;;;;;;;;;;;;;;;21.43;58.10;101216.78;7392905;19;1480;-45
2023/06/04 02:27:20;;;;;;;;;;;;;;;21.45;58.13;101220.19;7394711;19;1186;-45
2023/06/04 02:29:48;;;;;;;;;;;;;;;21.47;58.25;101238.03;7394865;19;1478;-45
2023/06/04 02:32:17;;;;;;;;;;;;;;;21.47;58.06;101225.44;7395979;19;1272;-45
2023/06/04 02:34:45;;;;;;;;;;;;;;;21.48;58.44;101228.97;7395203;19;1472;-45
2023/06/04 02:37:13;;;;;;;;;;;;;;;21.47;58.36;101240.72;7396027;19;1531;-45
2023/06/04 02:39:41;;;;;;;;;;;;;;;21.45;58.43;101247.09;7394634;19;1857;-45
2023/06/04 02:42:10;;;;;;;;;;;;;;;21.51;58.29;101247.53;7396302;19;1928;-45
2023/06/04 02:44:41;;;;;;;;;;;;;;;21.51;57.96;101247.53;7399841;19;1959;-45
2023/06/04 02:47:09;;;;;;;;;;;;;;;21.40;58.30;101241.25;7403803;19;1461;-45
2023/06/04 02:49:38;;;;;;;;;;;;;;;21.47;57.93;101246.97;7402523;19;1757;-45
2023/06/04 02:52:06;;;;;;;;;;;;;;;21.53;57.68;101246.41;7402464;19;1541;-45
2023/06/04 02:54:34;;;;;;;;;;;;;;;21.42;57.85;101244.63;7398649;19;1726;-45
2023/06/04 02:57:03;;;;;;;;;;;;;;;21.45;57.83;101228.25;7401184;19;1945;-45
2023/06/04 02:59:32;;;;;;;;;;;;;;;21.46;57.80;101239.88;7400056;19;1843;-45
2023/06/04 03:02:02;;;;;;;;;;;;;;;21.47;58.04;101236.19;7403293;19;1960;-45
2023/06/04 03:04:34;;;;;;;;;;;;;;;21.48;57.52;101243.28;7402419;19;1970;-45
2023/06/04 03:07:03;;;;;;;;;;;;;;;21.41;57.77;101252.88;7401543;19;1589;-45
2023/06/04 03:09:32;;;;;;;;;;;;;;;21.42;57.71;101244.63;7400994;19;1373;-45
2023/06/04 03:12:03;;;;;;;;;;;;;;;21.36;57.68;101252.44;7402297;19;1105;-45
2023/06/04 03:14:32;;;;;;;;;;;;;;;21.35;57.67;101246.22;7402352;19;1094;-45
2023/06/04 03:17:10;;;;;;;;;;;;;;;21.42;57.41;101259.94;7401613;19;1485;-45
2023/06/04 03:19:40;;;;;;;;;;;;;;;21.44;57.52;101255.31;7399519;19;1872;-45
2023/06/04 03:22:08;;;;;;;;;;;;;;;21.42;57.55;101254.56;7400399;19;1508;-45
2023/06/04 03:24:37;;;;;;;;;;;;;;;21.41;57.50;101255.56;7400038;19;1587;-45
2023/06/04 03:27:07;;;;;;;;;;;;;;;21.46;57.15;101272.16;7401416;19;1488;-45
2023/06/04 03:29:35;;;;;;;;;;;;;;;21.50;57.46;101256.59;7400682;19;1575;-45
2023/06/04 03:32:06;;;;;;;;;;;;;;;21.47;57.45;101267.63;7401940;19;1046;-45
2023/06/04 03:34:35;;;;;;;;;;;;;;;21.47;57.42;101259.53;7398589;19;1532;-45
2023/06/04 03:37:03;;;;;;;;;;;;;;;21.44;57.27;101285.75;7400922;19;1165;-45
2023/06/04 03:39:31;;;;;;;;;;;;;;;21.44;57.20;101269.59;7399555;19;1845;-45
2023/06/04 03:41:59;;;;;;;;;;;;;;;21.48;57.20;101269.34;7400254;19;1664;-45
2023/06/04 03:44:28;;;;;;;;;;;;;;;21.43;57.55;101276.00;7399701;19;1244;-45
2023/06/04 03:46:56;;;;;;;;;;;;;;;21.44;57.19;101264.22;7400269;19;1532;-45
2023/06/04 03:49:27;;;;;;;;;;;;;;;21.43;57.34;101264.38;7399337;19;1571;-46
2023/06/04 03:51:55;;;;;;;;;;;;;;;21.56;57.29;101266.78;7400173;19;1211;-45
2023/06/04 03:54:24;;;;;;;;;;;;;;;21.55;56.81;101271.34;7400107;19;1603;-45
2023/06/04 03:56:52;;;;;;;;;;;;;;;21.57;56.88;101257.75;7398135;19;1453;-45
2023/06/04 03:59:20;;;;;;;;;;;;;;;21.64;56.38;101269.63;7397493;19;1853;-45
2023/06/04 04:01:49;;;;;;;;;;;;;;;21.55;56.64;101270.50;7399116;19;1501;-45
2023/06/04 04:04:17;;;;;;;;;;;;;;;21.51;56.84;101286.06;7399963;19;1547;-45
2023/06/04 04:06:48;;;;;;;;;;;;;;;21.53;57.04;101283.22;7400017;19;1543;-45
2023/06/04 04:09:16;;;;;;;;;;;;;;;21.73;56.44;101289.47;7399656;19;1227;-45
2023/06/04 04:11:45;;;;;;;;;;;;;;;21.74;56.37;101291.16;7400124;19;1540;-45
2023/06/04 04:14:13;;;;;;;;;;;;;;;21.56;57.17;101317.91;7400748;19;1864;-45
2023/06/04 04:16:41;;;;;;;;;;;;;;;21.54;56.53;101293.00;7399573;19;1585;-54
2023/06/04 04:19:11;;;;;;;;;;;;;;;21.50;56.61;101302.34;7399745;19;1841;-45
2023/06/04 04:21:40;;;;;;;;;;;;;;;21.46;56.86;101299.06;7399350;19;1755;-45
2023/06/04 04:24:11;;;;;;;;;;;;;;;21.44;56.73;101282.22;7397265;19;1508;-45
2023/06/04 04:26:39;;;;;;;;;;;;;;;21.45;56.90;101298.22;7399382;19;1759;-45
2023/06/04 04:29:08;;;;;;;;;;;;;;;21.54;56.37;101295.69;7399636;19;969;-45
2023/06/04 04:31:38;;;;;;;;;;;;;;;21.56;56.43;101294.53;7398915;19;1864;-45
2023/06/04 04:34:08;;;;;;;;;;;;;;;21.43;56.65;101305.59;7398442;19;1905;-45
2023/06/04 04:36:40;;;;;;;;;;;;;;;21.45;56.64;101321.59;7399570;19;968;-45
2023/06/04 04:39:11;;;;;;;;;;;;;;;21.44;56.50;101333.34;7398608;19;1841;-45
2023/06/04 04:41:39;;;;;;;;;;;;;;;21.34;56.51;101322.50;7397562;19;1840;-45
2023/06/04 04:44:08;;;;;;;;;;;;;;;21.40;56.34;101310.34;7398145;19;1556;-45
2023/06/04 04:46:36;;;;;;;;;;;;;;;21.44;56.58;101328.78;7397692;19;1528;-45
2023/06/04 04:49:04;;;;;;;;;;;;;;;21.39;56.69;101309.50;7397989;19;1641;-45
2023/06/04 04:51:33;;;;;;;;;;;;;;;21.41;56.32;101309.38;7396761;19;1460;-45
2023/06/04 04:54:01;;;;;;;;;;;;;;;21.34;56.86;101311.75;7397895;19;1242;-45
2023/06/04 04:56:35;;;;;;;;;;;;;;;21.33;56.67;101317.25;7397637;19;1539;-45
2023/06/04 04:59:04;;;;;;;;;;;;;;;21.36;56.44;101312.47;7398054;19;1992;-45
2023/06/04 05:01:32;;;;;;;;;;;;;;;21.36;56.96;101333.13;7396778;19;1202;-45
2023/06/04 05:04:00;;;;;;;;;;;;;;;21.35;56.71;101331.44;7396972;19;1576;-45
2023/06/04 05:06:28;;;;;;;;;;;;;;;21.31;56.48;101349.69;7397344;19;1205;-45
2023/06/04 05:08:57;;;;;;;;;;;;;;;21.33;56.43;101326.19;7394928;19;1630;-45
2023/06/04 05:11:25;;;;;;;;;;;;;;;21.29;56.43;101322.09;7397315;19;1513;-45
2023/06/04 05:13:56;;;;;;;;;;;;;;;21.41;57.21;101312.91;7397941;19;1840;-45
2023/06/04 05:16:24;;;;;;;;;;;;;;;21.36;57.75;101325.91;6874722;19;9999665;-45
2023/06/04 05:18:53;;;;;;;;;;;;;;;21.34;57.77;101317.13;7390233;19;1620;-45
2023/06/04 05:21:21;;;;;;;;;;;;;;;21.36;57.42;101344.75;7388940;19;1882;-45
2023/06/04 05:23:49;;;;;;;;;;;;;;;21.33;57.32;101334.28;7386391;19;1839;-45
2023/06/04 05:26:18;;;;;;;;;;;;;;;21.38;57.75;101326.63;7391335;19;1836;-45
2023/06/04 05:28:46;;;;;;;;;;;;;;;21.35;57.72;101343.06;7388531;19;1502;-45
2023/06/04 05:31:18;;;;;;;;;;;;;;;21.35;57.55;101345.75;7386839;19;1561;-45
2023/06/04 05:33:47;;;;;;;;;;;;;;;21.37;57.77;101341.09;7389440;19;1453;-45
2023/06/04 05:36:16;;;;;;;;;;;;;;;21.42;57.45;101356.81;7392152;19;1058;-45
2023/06/04 05:38:44;;;;;;;;;;;;;;;21.40;57.60;101337.25;7389138;19;1817;-45
2023/06/04 05:41:12;;;;;;;;;;;;;;;21.44;57.53;101339.56;7387894;19;1868;-45
2023/06/04 05:43:40;;;;;;;;;;;;;;;21.49;57.59;101357.13;7390357;19;1588;-45
2023/06/04 05:46:10;;;;;;;;;;;;;;;21.40;57.58;101353.41;7389523;19;1264;-45
2023/06/04 05:48:41;;;;;;;;;;;;;;;21.33;57.71;101347.72;7389805;19;1810;-45
2023/06/04 05:51:09;;;;;;;;;;;;;;;21.34;57.42;101354.78;7389810;19;1856;-45
2023/06/04 05:53:38;;;;;;;;;;;;;;;21.35;57.64;101351.13;7387581;19;1818;-45
2023/06/04 05:56:06;;;;;;;;;;;;;;;21.45;57.32;101351.19;7389936;19;1574;-45
2023/06/04 05:58:35;;;;;;;;;;;;;;;21.54;57.40;101357.56;7390626;19;1782;-45
2023/06/04 06:01:03;;;;;;;;;;;;;;;21.05;57.65;101300.91;7386297;19;1865;-45
2023/06/04 06:03:31;;;;;;;;;;;;;;;21.42;57.58;101383.72;7391360;19;1378;-45
2023/06/04 06:06:02;;;;;;;;;;;;;;;21.54;57.16;101366.50;7392218;19;1521;-45
2023/06/04 06:08:31;;;;;;;;;;;;;;;21.57;56.82;101360.00;7392780;19;1583;-45
2023/06/04 06:10:59;;;;;;;;;;;;;;;21.58;56.92;101359.00;7394244;19;1464;-45
2023/06/04 06:13:28;;;;;;;;;;;;;;;21.53;57.96;101363.97;7395183;19;1314;-45
2023/06/04 06:15:58;;;;;;;;;;;;;;;21.58;57.19;101367.06;7394086;19;1738;-45
2023/06/04 06:18:26;;;;;;;;;;;;;;;21.54;57.77;101365.66;7394867;19;1478;-45
2023/06/04 06:20:54;;;;;;;;;;;;;;;21.47;57.56;101364.47;7400643;19;1849;-46
2023/06/04 06:23:25;;;;;;;;;;;;;;;21.49;58.89;101375.97;7403086;19;1639;-45
2023/06/04 06:25:53;;;;;;;;;;;;;;;21.67;57.40;101381.56;7401191;19;1457;-45
2023/06/04 06:28:22;;;;;;;;;;;;;;;21.49;55.92;101384.91;7402825;19;1485;-45
2023/06/04 06:30:50;;;;;;;;;;;;;;;21.57;55.01;101365.38;7400000;19;1866;-45
2023/06/04 06:33:21;;;;;;;;;;;;;;;21.44;55.64;101382.59;7399386;19;1796;-45
2023/06/04 06:35:50;;;;;;;;;;;;;;;21.54;56.06;101388.03;7402860;19;988;-45
2023/06/04 06:38:18;;;;;;;;;;;;;;;21.56;56.31;101377.13;7398221;19;1901;-45
2023/06/04 06:40:49;;;;;;;;;;;;;;;21.46;56.83;101379.78;7400290;19;1853;-45
2023/06/04 06:43:17;;;;;;;;;;;;;;;21.47;56.84;101370.75;7401256;19;1378;-45
2023/06/04 06:45:46;;;;;;;;;;;;;;;21.95;55.51;101379.91;7398710;19;1413;-45
2023/06/04 06:48:14;;;;;;;;;;;;;;;21.98;57.21;101380.44;7398380;19;1414;-46
2023/06/04 06:50:42;;;;;;;;;;;;;;;21.86;58.85;101376.19;7398018;19;1805;-45
2023/06/04 06:53:10;;;;;;;;;;;;;;;21.95;57.22;101385.28;7397532;19;1842;-46
2023/06/04 06:55:39;;;;;;;;;;;;;;;22.07;56.21;101384.16;7398833;19;1120;-45
2023/06/04 06:58:10;;;;;;;;;;;;;;;22.39;55.56;101383.06;7397827;19;1853;-46
2023/06/04 07:00:38;;;;;;;;;;;;;;;22.41;55.11;101381.06;7395190;19;1990;-46
2023/06/04 07:03:08;;;;;;;;;;;;;;;22.47;55.39;101385.88;7402231;19;1505;-45
2023/06/04 07:05:36;;;;;;;;;;;;;;;22.47;55.31;101396.66;7402851;19;1062;-46
2023/06/04 07:08:05;;;;;;;;;;;;;;;22.44;55.38;101376.25;7399807;19;1521;-46
2023/06/04 07:10:33;;;;;;;;;;;;;;;22.39;55.20;101386.59;7400964;19;1808;-45
2023/06/04 07:13:01;;;;;;;;;;;;;;;22.41;55.05;101386.47;7400288;19;1465;-46
2023/06/04 07:15:32;;;;;;;;;;;;;;;22.50;55.01;101385.63;7401659;19;1816;-46
2023/06/04 07:18:01;;;;;;;;;;;;;;;22.45;54.90;101393.28;7401742;19;1738;-46
2023/06/04 07:20:30;;;;;;;;;;;;;;;22.46;55.05;101396.81;7401026;19;1833;-60
2023/06/04 07:22:59;;;;;;;;;;;;;;;22.56;54.47;101395.81;7400880;19;1873;-46
2023/06/04 07:25:27;;;;;;;;;;;;;;;22.32;54.96;101387.31;7398416;19;1638;-45
2023/06/04 07:27:57;;;;;;;;;;;;;;;22.14;55.69;101396.06;7402234;19;1071;-46
2023/06/04 07:30:26;;;;;;;;;;;;;;;22.27;55.19;101400.38;7395846;19;1474;-46
2023/06/04 07:32:57;;;;;;;;;;;;;;;22.33;55.04;101394.41;7401817;19;1714;-46
2023/06/04 07:35:25;;;;;;;;;;;;;;;22.48;54.39;101416.38;7402491;19;991;-46
2023/06/04 07:37:53;;;;;;;;;;;;;;;22.50;54.75;101395.53;7398145;19;1963;-46
2023/06/04 07:40:22;;;;;;;;;;;;;;;22.38;54.91;101390.31;7399958;19;1861;-46
2023/06/04 07:42:50;;;;;;;;;;;;;;;22.49;55.51;101394.69;7400245;19;1350;-46
2023/06/04 07:45:18;;;;;;;;;;;;;;;22.22;55.86;101398.94;7402022;19;1486;-46
2023/06/04 07:47:47;;;;;;;;;;;;;;;22.16;56.26;101404.88;7398182;19;1872;-46
2023/06/04 07:50:17;;;;;;;;;;;;;;;22.36;55.38;101404.88;7400600;19;1379;-46
2023/06/04 07:52:46;;;;;;;;;;;;;;;22.51;55.09;101403.47;7400029;19;1394;-46
2023/06/04 07:55:14;;;;;;;;;;;;;;;22.56;54.95;101390.44;7400176;19;1458;-45
2023/06/04 07:57:42;;;;;;;;;;;;;;;22.24;55.89;101394.28;7401332;19;1473;-45
2023/06/04 08:00:11;;;;;;;;;;;;;;;22.08;57.56;101390.41;7400043;19;1853;-45
2023/06/04 08:02:40;;;;;;;;;;;;;;;22.04;57.88;101406.84;7399708;19;1290;-45
2023/06/04 08:05:08;;;;;;;;;;;;;;;21.97;58.26;101391.38;7400177;19;1615;-45
2023/06/04 08:07:39;;;;;;;;;;;;;;;22.07;57.79;101400.31;7396233;19;1374;-44
2023/06/04 08:10:08;;;;;;;;;;;;;;;22.14;57.72;101398.75;7399489;19;1188;-45
2023/06/04 08:12:36;;;;;;;;;;;;;;;22.32;56.04;101382.78;7400146;19;1442;-45
2023/06/04 08:15:05;;;;;;;;;;;;;;;22.31;56.98;101401.78;7397125;19;1967;-45
2023/06/04 08:17:34;;;;;;;;;;;;;;;22.40;58.07;101398.22;7400027;19;1575;-46
2023/06/04 08:20:06;;;;;;;;;;;;;;;22.43;58.14;101395.25;7401121;19;1804;-45
2023/06/04 08:22:34;;;;;;;;;;;;;;;;;;7398934;19;1847;-45
2023/06/04 08:25:05;;;;;;;;;;;;;;;22.52;57.08;101388.16;7397279;19;1587;-45
2023/06/04 08:27:34;;;;;;;;;;;;;;;22.60;56.48;101391.84;7399160;19;1267;-45
2023/06/04 08:30:02;;;;;;;;;;;;;;;22.50;56.91;101369.44;7397811;19;1575;-45
2023/06/04 08:32:30;;;;;;;;;;;;;;;22.54;57.35;101391.53;7400509;19;1074;-44
2023/06/04 08:34:58;;;;;;;;;;;;;;;22.42;57.85;101393.53;7392877;19;1798;-45
2023/06/04 08:37:27;;;;;;;;;;;;;;;22.35;59.06;101408.59;7398712;19;1397;-45
2023/06/04 08:39:55;;;;;;;;;;;;;;;22.32;58.69;101398.09;7396146;19;1449;-45
2023/06/04 08:42:30;;;;;;;;;;;;;;;22.23;58.33;101397.06;7391129;19;1838;-45
2023/06/04 08:44:59;;;;;;;;;;;;;;;22.34;56.49;101394.28;7397280;19;1334;-45
2023/06/04 08:47:28;;;;;;;;;;;;;;;22.38;54.09;101409.16;7397335;19;1430;-45
2023/06/04 08:49:57;;;;;;;;;;;;;;;22.33;50.85;101410.56;7395597;19;1437;-45
2023/06/04 08:52:26;;;;;;;;;;;;;;;22.33;52.50;101415.97;7397570;19;1992;-45
2023/06/04 08:54:56;;;;;;;;;;;;;;;22.26;52.38;101412.97;7393528;19;1654;-45
2023/06/04 08:57:27;;;;;;;;;;;;;;;22.14;50.67;101396.06;7395228;19;1557;-45
2023/06/04 08:59:58;;;;;;;;;;;;;;;22.09;49.19;101392.94;7393732;19;1526;-45
2023/06/04 09:02:30;;;;;;;;;;;;;;;22.15;49.84;101399.63;7394474;19;1871;-45
2023/06/04 09:04:58;;;;;;;;;;;;;;;22.05;49.65;101394.22;7394710;19;1620;-45
2023/06/04 09:07:27;;;;;;;;;;;;;;;22.06;50.27;101409.38;7393835;19;1283;-45
2023/06/04 09:09:56;;;;;;;;;;;;;;;21.96;47.71;101405.84;7391468;19;1185;-45
2023/06/04 09:12:27;;;;;;;;;;;;;;;22.03;49.15;101394.34;7395296;19;1285;-45
2023/06/04 09:14:55;;;;;;;;;;;;;;;22.02;47.90;101414.22;7395367;19;1461;-45
2023/06/04 09:17:24;;;;;;;;;;;;;;;22.03;49.34;101406.97;7393646;19;1559;-45
2023/06/04 09:19:53;;;;;;;;;;;;;;;22.11;49.39;101406.28;7394871;19;1554;-45
2023/06/04 09:22:22;;;;;;;;;;;;;;;22.01;48.60;101417.03;7393660;19;1847;-45
2023/06/04 09:24:52;;;;;;;;;;;;;;;22.01;47.79;101422.44;7390254;19;1232;-45
2023/06/04 09:27:22;;;;;;;;;;;;;;;22.05;47.95;101405.00;7397197;19;1034;-45
2023/06/04 09:29:57;;;;;;;;;;;;;;;22.04;47.75;101414.94;7395360;19;1475;-45
2023/06/04 09:32:26;;;;;;;;;;;;;;;22.05;47.34;101410.38;7395025;19;1254;-45
2023/06/04 09:34:56;;;;;;;;;;;;;;;21.98;47.67;101411.94;7395590;19;1568;-45
2023/06/04 09:37:26;;;;;;;;;;;;;;;22.02;48.09;101413.34;7394887;19;1365;-45
2023/06/04 09:39:58;;;;;;;;;;;;;;;22.04;46.99;101405.97;7395771;19;1696;-45
2023/06/04 09:42:26;;;;;;;;;;;;;;;21.96;47.01;101408.53;7392819;19;1859;-45
2023/06/04 09:44:58;;;;;;;;;;;;;;;21.90;47.72;101411.78;7394359;19;1326;-45
2023/06/04 09:47:31;;;;;;;;;;;;;;;22.00;48.36;101401.88;7396028;19;2088;-45
2023/06/04 09:49:59;;;;;;;;;;;;;;;21.99;46.33;101409.09;7396161;19;1837;-45
2023/06/04 09:52:35;;;;;;;;;;;;;;;22.08;47.19;101406.56;7395716;19;1800;-45
2023/06/04 09:55:03;;;;;;;;;;;;;;;22.26;46.72;101404.03;7394012;19;1801;-45
2023/06/04 09:57:32;;;;;;;;;;;;;;;22.21;46.89;101416.06;7394388;19;1489;-45
2023/06/04 10:00:09;;;;;;;;;;;;;;;22.10;46.74;101421.56;7396560;19;1051;-45
2023/06/04 10:02:37;;;;;;;;;;;;;;;21.96;46.79;101419.28;7394822;19;1849;-45
2023/06/04 10:05:08;;;;;;;;;;;;;;;22.12;47.43;101397.19;7393524;19;1620;-45
2023/06/04 10:07:39;;;;;;;;;;;;;;;22.07;47.17;101400.31;7391346;19;1737;-49
2023/06/04 10:10:08;;;;;;;;;;;;;;;22.05;47.67;101407.69;7394796;19;1322;-47
2023/06/04 10:12:40;;;;;;;;;;;;;;;22.24;48.05;101393.41;7392969;19;1610;-48
2023/06/04 10:15:13;;;;;;;;;;;;;;;22.25;48.25;101395.13;7393391;19;1537;-48
2023/06/04 10:17:42;;;;;;;;;;;;;;;22.24;48.85;101404.19;7394029;19;1469;-47
2023/06/04 10:20:11;;;;;;;;;;;;;;;22.18;49.27;101408.28;7395602;19;1496;-48
2023/06/04 10:22:40;;;;;;;;;;;;;;;22.23;49.25;101406.00;7394649;19;1859;-47
2023/06/04 10:25:09;;;;;;;;;;;;;;;22.17;50.01;101401.19;7389173;19;1337;-48
2023/06/04 10:27:38;;;;;;;;;;;;;;;22.26;49.78;101387.88;7393316;19;1519;-48
2023/06/04 10:30:07;;;;;;;;;;;;;;;22.21;50.41;101391.81;7394020;19;1217;-44
2023/06/04 10:32:38;;;;;;;;;;;;;;;22.20;50.48;101400.91;7382513;19;1793;-45
2023/06/04 10:35:07;;;;;;;;;;;;;;;22.28;50.36;101391.28;7390548;19;1528;-44
2023/06/04 10:37:36;;;;;;;;;;;;;;;22.27;51.00;101389.59;7393592;19;1495;-45
2023/06/04 10:40:05;;;;;;;;;;;;;;;22.08;51.45;101396.63;7394001;19;1201;-45
2023/06/04 10:42:40;;;;;;;;;;;;;;;22.11;51.71;101396.34;7392427;19;1838;-45
2023/06/04 10:45:10;;;;;;;;;;;;;;;22.01;52.01;101390.97;7388821;19;1568;-47
2023/06/04 10:47:43;;;;;;;;;;;;;;;22.20;52.03;101395.53;7389741;19;1244;-47
2023/06/04 10:50:12;;;;;;;;;;;;;;;22.18;52.24;101381.34;7391950;19;1436;-48
2023/06/04 10:52:41;;;;;;;;;;;;;;;22.20;52.22;101390.13;7393667;19;1239;-48
2023/06/04 10:55:10;;;;;;;;;;;;;;;22.17;52.55;101378.78;7393442;19;1620;-47
2023/06/04 10:57:40;;;;;;;;;;;;;;;22.31;51.56;101385.63;7393314;19;1227;-47
2023/06/04 11:00:10;;;;;;;;;;;;;;;22.34;51.88;101379.94;7395001;19;1001;-47
2023/06/04 11:02:51;;;;;;;;;;;;;;;22.22;51.87;101382.75;7393003;19;1842;-47
2023/06/04 11:05:19;;;;;;;;;;;;;;;22.40;52.03;101368.56;7395793;19;1279;-47
2023/06/04 11:07:48;;;;;;;;;;;;;;;22.31;52.30;101378.38;7400926;19;1467;-48
2023/06/04 11:10:18;;;;;;;;;;;;;;;22.31;52.35;101372.16;7400758;19;1533;-48
2023/06/04 11:12:46;;;;;;;;;;;;;;;22.29;52.24;101384.91;7399834;19;1519;-45
2023/06/04 11:15:15;;;;;;;;;;;;;;;22.27;51.96;101371.56;6870155;19;9999834;-45
2023/06/04 11:17:58;;;;;;;;;;;;;;;22.10;53.61;101383.88;7390885;19;1554;-45
2023/06/04 11:20:27;;;;;;;;;;;;;;;22.12;53.70;101371.09;7393355;19;1558;-45
2023/06/04 11:22:56;;;;;;;;;;;;;;;22.18;54.00;101377.78;7390505;19;1869;-45
2023/06/04 11:25:25;;;;;;;;;;;;;;;22.22;53.65;101361.22;7390900;19;1665;-45
2023/06/04 11:27:55;;;;;;;;;;;;;;;22.19;53.87;101372.25;7394432;19;1607;-45
2023/06/04 11:30:24;;;;;;;;;;;;;;;22.18;53.47;101369.69;7393876;19;1634;-45
2023/06/04 11:32:53;;;;;;;;;;;;;;;22.15;53.92;101375.38;7394123;19;1858;-45
2023/06/04 11:35:24;;;;;;;;;;;;;;;22.16;53.84;101361.78;7392612;19;1816;-45
2023/06/04 11:37:59;;;;;;;;;;;;;;;22.10;54.05;101373.09;7394756;19;1016;-45
2023/06/04 11:40:27;;;;;;;;;;;;;;;22.20;53.65;101381.19;7394463;19;1824;-45
2023/06/04 11:42:56;;;;;;;;;;;;;;;22.21;53.70;101369.44;7390940;19;1861;-45
2023/06/04 11:45:25;;;;;;;;;;;;;;;22.19;53.78;101366.03;7393798;19;1702;-45
2023/06/04 11:47:55;;;;;;;;;;;;;;;22.18;54.19;101358.91;7393018;19;1468;-45
2023/06/04 11:50:28;;;;;;;;;;;;;;;22.17;54.38;101363.47;7393034;19;1723;-45
2023/06/04 11:52:57;;;;;;;;;;;;;;;22.20;54.31;101360.50;7392235;19;1440;-45
2023/06/04 11:55:25;;;;;;;;;;;;;;;22.21;54.40;101362.19;7391072;19;1387;-45
2023/06/04 11:57:54;;;;;;;;;;;;;;;22.28;54.29;101350.88;7389400;19;1547;-47
2023/06/04 12:00:22;;;;;;;;;;;;;;;22.19;54.25;101350.69;7391505;19;1374;-45
2023/06/04 12:02:52;;;;;;;;;;;;;;;22.12;54.45;101359.50;7391760;19;1881;-44
2023/06/04 12:05:22;;;;;;;;;;;;;;;22.18;54.37;101367.00;7392937;19;1587;-45
2023/06/04 12:07:53;;;;;;;;;;;;;;;22.11;54.67;101358.66;7393300;19;1578;-45
2023/06/04 12:10:24;;;;;;;;;;;;;;;22.11;54.86;101347.03;7393527;19;1552;-45
2023/06/04 12:12:56;;;;;;;;;;;;;;;22.09;54.56;101346.31;7392500;19;1612;-45
2023/06/04 12:15:25;;;;;;;;;;;;;;;22.10;54.67;101346.16;7389814;19;2328;-45
2023/06/04 12:17:54;;;;;;;;;;;;;;;22.11;54.44;101361.34;7390778;19;1671;-45
2023/06/04 12:20:34;;;;;;;;;;;;;;;22.32;54.16;101361.25;7392136;19;1635;-45
2023/06/04 12:23:05;;;;;;;;;;;;;;;22.44;53.77;101367.28;7390419;19;1877;-45
2023/06/04 12:25:34;;;;;;;;;;;;;;;22.44;53.58;101357.38;7389053;19;1446;-45
2023/06/04 12:28:04;;;;;;;;;;;;;;;;;;7393890;19;1622;-45
2023/06/04 12:30:38;;;;;;;;;;;;;;;22.30;54.15;101352.41;7393405;19;1262;-45
2023/06/04 12:33:06;;;;;;;;;;;;;;;22.30;54.33;101363.19;7397593;19;1074;-44
2023/06/04 12:35:35;;;;;;;;;;;;;;;22.21;54.43;101348.72;7398412;19;1224;-44
2023/06/04 12:38:08;;;;;;;;;;;;;;;22.22;55.04;101361.22;7397794;19;1497;-45
2023/06/04 12:40:37;;;;;;;;;;;;;;;22.32;54.94;101357.66;7398002;19;1596;-45
2023/06/04 12:43:05;;;;;;;;;;;;;;;22.23;54.57;101352.13;7397101;19;1859;-45
2023/06/04 12:45:33;;;;;;;;;;;;;;;22.26;54.31;101351.00;7395098;19;1279;-45
2023/06/04 12:48:02;;;;;;;;;;;;;;;22.03;54.47;101371.97;7395750;19;1250;-45
2023/06/04 12:50:30;;;;;;;;;;;;;;;22.14;54.30;101352.97;7395267;19;1224;-45
2023/06/04 12:52:58;;;;;;;;;;;;;;;22.21;54.12;101355.97;7394585;19;1235;-45
2023/06/04 12:55:29;;;;;;;;;;;;;;;22.20;54.20;101352.41;7395889;19;1381;-54
2023/06/04 12:57:57;;;;;;;;;;;;;;;22.22;54.08;101371.97;7395522;19;1395;-45